sensor_id;sensor_type;location;lat;lon;timestamp;P1;durP1;ratioP1;P2;durP2;ratioP2
70199;SDS011;57587;55.688;37.600;2022-10-16T00:01:32;7.50;;;4.28;;
70199;SDS011;57587;55.688;37.600;2022-10-16T00:04:00;7.70;;;4.72;;
70199;SDS011;57587;55.688;37.600;2022-10-16T00:06:29;7.90;;;4.40;;
70199;SDS011;57587;55.688;37.600;2022-10-16T00:08:57;9.25;;;4.53;;
70199;SDS011;57587;55.688;37.600;2022-10-16T00:11:28;9.97;;;4.60;;
70199;SDS011;57587;55.688;37.600;2022-10-16T00:14:05;7.93;;;4.10;;
70199;SDS011;57587;55.688;37.600;2022-10-16T00:16:37;7.88;;;4.32;;
70199;SDS011;57587;55.688;37.600;2022-10-16T00:19:04;9.85;;;4.28;;
70199;SDS011;57587;55.688;37.600;2022-10-16T00:21:32;8.32;;;4.60;;
70199;SDS011;57587;55.688;37.600;2022-10-16T00:24:18;8.47;;;4.10;;
70199;SDS011;57587;55.688;37.600;2022-10-16T00:26:45;8.27;;;4.40;;
70199;SDS011;57587;55.688;37.600;2022-10-16T00:29:15;10.05;;;4.50;;
70199;SDS011;57587;55.688;37.600;2022-10-16T00:31:43;9.15;;;4.43;;
70199;SDS011;57587;55.688;37.600;2022-10-16T00:34:10;7.30;;;4.20;;
70199;SDS011;57587;55.688;37.600;2022-10-16T00:36:37;8.27;;;4.67;;
70199;SDS011;57587;55.688;37.600;2022-10-16T00:39:06;9.55;;;4.07;;
70199;SDS011;57587;55.688;37.600;2022-10-16T00:41:33;8.88;;;4.65;;
70199;SDS011;57587;55.688;37.600;2022-10-16T00:44:03;8.60;;;4.65;;
70199;SDS011;57587;55.688;37.600;2022-10-16T00:46:50;7.85;;;4.22;;
70199;SDS011;57587;55.688;37.600;2022-10-16T00:49:18;10.67;;;3.83;;
70199;SDS011;57587;55.688;37.600;2022-10-16T00:51:50;9.95;;;4.90;;
70199;SDS011;57587;55.688;37.600;2022-10-16T00:54:24;7.82;;;4.15;;
70199;SDS011;57587;55.688;37.600;2022-10-16T00:56:54;7.22;;;4.45;;
70199;SDS011;57587;55.688;37.600;2022-10-16T00:59:28;7.05;;;4.05;;
70199;SDS011;57587;55.688;37.600;2022-10-16T01:01:57;11.80;;;4.40;;
70199;SDS011;57587;55.688;37.600;2022-10-16T01:04:25;9.38;;;4.68;;
70199;SDS011;57587;55.688;37.600;2022-10-16T01:10:24;7.43;;;4.38;;
70199;SDS011;57587;55.688;37.600;2022-10-16T01:16:38;9.80;;;4.70;;
70199;SDS011;57587;55.688;37.600;2022-10-16T01:19:20;7.13;;;4.30;;
70199;SDS011;57587;55.688;37.600;2022-10-16T01:22:34;8.23;;;4.80;;
70199;SDS011;57587;55.688;37.600;2022-10-16T01:25:30;7.57;;;4.05;;
70199;SDS011;57587;55.688;37.600;2022-10-16T01:28:15;7.97;;;4.53;;
70199;SDS011;57587;55.688;37.600;2022-10-16T01:30:46;6.90;;;4.47;;
70199;SDS011;57587;55.688;37.600;2022-10-16T01:33:17;8.35;;;5.28;;
70199;SDS011;57587;55.688;37.600;2022-10-16T01:35:48;7.78;;;5.15;;
70199;SDS011;57587;55.688;37.600;2022-10-16T01:38:21;10.73;;;4.70;;
70199;SDS011;57587;55.688;37.600;2022-10-16T01:40:56;8.32;;;4.85;;
70199;SDS011;57587;55.688;37.600;2022-10-16T01:43:31;8.27;;;4.97;;
70199;SDS011;57587;55.688;37.600;2022-10-16T01:46:04;7.93;;;4.47;;
70199;SDS011;57587;55.688;37.600;2022-10-16T01:48:33;9.40;;;5.13;;
70199;SDS011;57587;55.688;37.600;2022-10-16T01:51:04;7.43;;;4.30;;
70199;SDS011;57587;55.688;37.600;2022-10-16T01:53:33;15.13;;;5.10;;
70199;SDS011;57587;55.688;37.600;2022-10-16T01:56:00;7.07;;;4.53;;
70199;SDS011;57587;55.688;37.600;2022-10-16T01:58:30;7.20;;;4.57;;
70199;SDS011;57587;55.688;37.600;2022-10-16T02:01:03;12.20;;;4.32;;
70199;SDS011;57587;55.688;37.600;2022-10-16T02:03:32;9.48;;;4.40;;
70199;SDS011;57587;55.688;37.600;2022-10-16T02:06:03;7.45;;;4.55;;
70199;SDS011;57587;55.688;37.600;2022-10-16T02:08:30;8.77;;;4.27;;
70199;SDS011;57587;55.688;37.600;2022-10-16T02:10:58;9.30;;;4.28;;
70199;SDS011;57587;55.688;37.600;2022-10-16T02:16:03;10.05;;;4.45;;
70199;SDS011;57587;55.688;37.600;2022-10-16T02:18:30;8.30;;;4.40;;
70199;SDS011;57587;55.688;37.600;2022-10-16T02:21:02;7.80;;;4.50;;
70199;SDS011;57587;55.688;37.600;2022-10-16T02:23:37;9.48;;;4.72;;
70199;SDS011;57587;55.688;37.600;2022-10-16T02:26:08;6.43;;;4.15;;
70199;SDS011;57587;55.688;37.600;2022-10-16T02:28:43;8.05;;;4.32;;
70199;SDS011;57587;55.688;37.600;2022-10-16T02:31:16;10.18;;;4.50;;
70199;SDS011;57587;55.688;37.600;2022-10-16T02:33:48;9.47;;;4.47;;
70199;SDS011;57587;55.688;37.600;2022-10-16T02:36:19;7.28;;;4.75;;
70199;SDS011;57587;55.688;37.600;2022-10-16T02:38:47;8.68;;;4.97;;
70199;SDS011;57587;55.688;37.600;2022-10-16T02:41:14;6.90;;;4.40;;
70199;SDS011;57587;55.688;37.600;2022-10-16T02:43:42;7.53;;;4.97;;
70199;SDS011;57587;55.688;37.600;2022-10-16T02:46:08;8.57;;;4.50;;
70199;SDS011;57587;55.688;37.600;2022-10-16T02:48:36;7.40;;;4.32;;
70199;SDS011;57587;55.688;37.600;2022-10-16T02:51:03;8.45;;;5.20;;
70199;SDS011;57587;55.688;37.600;2022-10-16T02:53:30;8.23;;;5.25;;
70199;SDS011;57587;55.688;37.600;2022-10-16T02:55:57;6.70;;;4.50;;
70199;SDS011;57587;55.688;37.600;2022-10-16T02:58:24;7.50;;;4.57;;
70199;SDS011;57587;55.688;37.600;2022-10-16T03:00:51;6.22;;;4.22;;
70199;SDS011;57587;55.688;37.600;2022-10-16T03:03:18;7.80;;;4.80;;
70199;SDS011;57587;55.688;37.600;2022-10-16T03:05:45;9.93;;;5.75;;
70199;SDS011;57587;55.688;37.600;2022-10-16T03:08:12;8.88;;;4.72;;
70199;SDS011;57587;55.688;37.600;2022-10-16T03:10:42;10.20;;;4.83;;
70199;SDS011;57587;55.688;37.600;2022-10-16T03:13:09;8.90;;;4.75;;
70199;SDS011;57587;55.688;37.600;2022-10-16T03:15:36;7.30;;;4.70;;
70199;SDS011;57587;55.688;37.600;2022-10-16T03:18:02;8.32;;;4.53;;
70199;SDS011;57587;55.688;37.600;2022-10-16T03:20:29;8.52;;;5.03;;
70199;SDS011;57587;55.688;37.600;2022-10-16T03:22:56;6.40;;;4.13;;
70199;SDS011;57587;55.688;37.600;2022-10-16T03:25:23;7.68;;;4.38;;
70199;SDS011;57587;55.688;37.600;2022-10-16T03:27:51;9.90;;;4.93;;
70199;SDS011;57587;55.688;37.600;2022-10-16T03:30:18;9.82;;;4.47;;
70199;SDS011;57587;55.688;37.600;2022-10-16T03:32:45;6.47;;;4.10;;
70199;SDS011;57587;55.688;37.600;2022-10-16T03:35:13;7.13;;;4.40;;
70199;SDS011;57587;55.688;37.600;2022-10-16T03:37:39;8.50;;;4.57;;
70199;SDS011;57587;55.688;37.600;2022-10-16T03:40:06;11.35;;;4.95;;
70199;SDS011;57587;55.688;37.600;2022-10-16T03:42:34;8.48;;;4.15;;
70199;SDS011;57587;55.688;37.600;2022-10-16T03:45:01;7.60;;;4.53;;
70199;SDS011;57587;55.688;37.600;2022-10-16T03:47:29;7.23;;;4.50;;
70199;SDS011;57587;55.688;37.600;2022-10-16T03:49:57;8.48;;;5.43;;
70199;SDS011;57587;55.688;37.600;2022-10-16T03:52:24;8.60;;;4.97;;
70199;SDS011;57587;55.688;37.600;2022-10-16T03:54:51;7.18;;;4.40;;
70199;SDS011;57587;55.688;37.600;2022-10-16T03:57:18;11.40;;;4.90;;
70199;SDS011;57587;55.688;37.600;2022-10-16T03:59:45;7.87;;;4.30;;
70199;SDS011;57587;55.688;37.600;2022-10-16T04:02:12;10.10;;;5.28;;
70199;SDS011;57587;55.688;37.600;2022-10-16T04:04:39;10.48;;;5.03;;
70199;SDS011;57587;55.688;37.600;2022-10-16T04:07:06;9.05;;;4.95;;
70199;SDS011;57587;55.688;37.600;2022-10-16T04:09:33;10.40;;;5.00;;
70199;SDS011;57587;55.688;37.600;2022-10-16T04:12:00;10.07;;;4.50;;
70199;SDS011;57587;55.688;37.600;2022-10-16T04:14:27;9.32;;;4.65;;
70199;SDS011;57587;55.688;37.600;2022-10-16T04:16:54;10.02;;;5.05;;
70199;SDS011;57587;55.688;37.600;2022-10-16T04:19:21;11.70;;;4.50;;
70199;SDS011;57587;55.688;37.600;2022-10-16T04:21:48;9.10;;;4.75;;
70199;SDS011;57587;55.688;37.600;2022-10-16T04:24:15;12.70;;;5.33;;
70199;SDS011;57587;55.688;37.600;2022-10-16T04:26:42;10.25;;;5.05;;
70199;SDS011;57587;55.688;37.600;2022-10-16T04:29:09;8.23;;;4.40;;
70199;SDS011;57587;55.688;37.600;2022-10-16T04:31:36;7.55;;;4.50;;
70199;SDS011;57587;55.688;37.600;2022-10-16T04:34:03;9.15;;;4.75;;
70199;SDS011;57587;55.688;37.600;2022-10-16T04:36:30;10.90;;;5.60;;
70199;SDS011;57587;55.688;37.600;2022-10-16T04:38:57;8.10;;;4.75;;
70199;SDS011;57587;55.688;37.600;2022-10-16T04:41:24;12.95;;;5.55;;
70199;SDS011;57587;55.688;37.600;2022-10-16T04:43:51;8.63;;;4.60;;
70199;SDS011;57587;55.688;37.600;2022-10-16T04:46:18;10.07;;;4.43;;
70199;SDS011;57587;55.688;37.600;2022-10-16T04:48:45;6.57;;;4.70;;
70199;SDS011;57587;55.688;37.600;2022-10-16T04:51:13;11.10;;;4.50;;
70199;SDS011;57587;55.688;37.600;2022-10-16T04:53:40;9.25;;;4.80;;
70199;SDS011;57587;55.688;37.600;2022-10-16T04:56:07;13.02;;;4.72;;
70199;SDS011;57587;55.688;37.600;2022-10-16T04:58:34;9.10;;;4.70;;
70199;SDS011;57587;55.688;37.600;2022-10-16T05:01:01;10.87;;;5.23;;
70199;SDS011;57587;55.688;37.600;2022-10-16T05:03:28;10.25;;;4.75;;
70199;SDS011;57587;55.688;37.600;2022-10-16T05:05:56;9.98;;;5.05;;
70199;SDS011;57587;55.688;37.600;2022-10-16T05:08:23;11.13;;;5.40;;
70199;SDS011;57587;55.688;37.600;2022-10-16T05:10:50;9.55;;;5.05;;
70199;SDS011;57587;55.688;37.600;2022-10-16T05:13:17;8.43;;;5.33;;
70199;SDS011;57587;55.688;37.600;2022-10-16T05:15:47;10.93;;;5.30;;
70199;SDS011;57587;55.688;37.600;2022-10-16T05:18:15;8.68;;;5.70;;
70199;SDS011;57587;55.688;37.600;2022-10-16T05:20:43;14.45;;;5.95;;
70199;SDS011;57587;55.688;37.600;2022-10-16T05:23:10;10.55;;;5.35;;
70199;SDS011;57587;55.688;37.600;2022-10-16T05:25:42;12.13;;;5.43;;
70199;SDS011;57587;55.688;37.600;2022-10-16T05:28:09;13.60;;;6.38;;
70199;SDS011;57587;55.688;37.600;2022-10-16T05:30:36;11.80;;;7.07;;
70199;SDS011;57587;55.688;37.600;2022-10-16T05:33:04;11.82;;;6.95;;
70199;SDS011;57587;55.688;37.600;2022-10-16T05:35:31;9.48;;;7.25;;
70199;SDS011;57587;55.688;37.600;2022-10-16T05:37:58;16.47;;;6.83;;
70199;SDS011;57587;55.688;37.600;2022-10-16T05:40:25;10.63;;;7.22;;
70199;SDS011;57587;55.688;37.600;2022-10-16T05:42:54;9.98;;;6.97;;
70199;SDS011;57587;55.688;37.600;2022-10-16T05:45:22;15.73;;;7.20;;
70199;SDS011;57587;55.688;37.600;2022-10-16T05:47:49;11.80;;;7.38;;
70199;SDS011;57587;55.688;37.600;2022-10-16T05:50:16;9.40;;;6.90;;
70199;SDS011;57587;55.688;37.600;2022-10-16T05:52:43;10.30;;;6.65;;
70199;SDS011;57587;55.688;37.600;2022-10-16T05:55:10;10.57;;;8.05;;
70199;SDS011;57587;55.688;37.600;2022-10-16T05:57:37;11.02;;;7.45;;
70199;SDS011;57587;55.688;37.600;2022-10-16T06:00:05;11.55;;;7.97;;
70199;SDS011;57587;55.688;37.600;2022-10-16T06:02:38;11.93;;;8.07;;
70199;SDS011;57587;55.688;37.600;2022-10-16T06:05:05;11.70;;;7.10;;
70199;SDS011;57587;55.688;37.600;2022-10-16T06:07:35;10.55;;;7.65;;
70199;SDS011;57587;55.688;37.600;2022-10-16T06:10:03;11.77;;;7.18;;
70199;SDS011;57587;55.688;37.600;2022-10-16T06:12:31;11.48;;;7.22;;
70199;SDS011;57587;55.688;37.600;2022-10-16T06:15:00;10.60;;;7.67;;
70199;SDS011;57587;55.688;37.600;2022-10-16T06:17:29;18.52;;;7.28;;
70199;SDS011;57587;55.688;37.600;2022-10-16T06:19:56;12.05;;;7.72;;
70199;SDS011;57587;55.688;37.600;2022-10-16T06:22:23;10.48;;;7.10;;
70199;SDS011;57587;55.688;37.600;2022-10-16T06:24:50;12.35;;;6.90;;
70199;SDS011;57587;55.688;37.600;2022-10-16T06:27:16;9.47;;;6.50;;
70199;SDS011;57587;55.688;37.600;2022-10-16T06:29:43;10.50;;;7.10;;
70199;SDS011;57587;55.688;37.600;2022-10-16T06:32:11;12.05;;;7.40;;
70199;SDS011;57587;55.688;37.600;2022-10-16T06:34:39;14.88;;;7.68;;
70199;SDS011;57587;55.688;37.600;2022-10-16T06:37:09;12.50;;;7.40;;
70199;SDS011;57587;55.688;37.600;2022-10-16T06:39:36;11.47;;;7.40;;
70199;SDS011;57587;55.688;37.600;2022-10-16T06:42:03;14.45;;;7.38;;
70199;SDS011;57587;55.688;37.600;2022-10-16T06:44:34;13.48;;;7.70;;
70199;SDS011;57587;55.688;37.600;2022-10-16T06:47:01;14.35;;;7.38;;
70199;SDS011;57587;55.688;37.600;2022-10-16T06:49:28;9.60;;;6.80;;
70199;SDS011;57587;55.688;37.600;2022-10-16T06:51:55;13.43;;;6.70;;
70199;SDS011;57587;55.688;37.600;2022-10-16T06:54:22;12.38;;;6.75;;
70199;SDS011;57587;55.688;37.600;2022-10-16T06:56:50;10.32;;;6.50;;
70199;SDS011;57587;55.688;37.600;2022-10-16T06:59:17;11.20;;;6.32;;
70199;SDS011;57587;55.688;37.600;2022-10-16T07:01:44;11.90;;;6.82;;
70199;SDS011;57587;55.688;37.600;2022-10-16T07:04:11;22.40;;;6.77;;
70199;SDS011;57587;55.688;37.600;2022-10-16T07:06:38;10.27;;;6.07;;
70199;SDS011;57587;55.688;37.600;2022-10-16T07:09:08;11.13;;;6.47;;
70199;SDS011;57587;55.688;37.600;2022-10-16T07:11:36;13.98;;;6.38;;
70199;SDS011;57587;55.688;37.600;2022-10-16T07:14:05;12.02;;;6.60;;
70199;SDS011;57587;55.688;37.600;2022-10-16T07:16:41;12.00;;;6.10;;
70199;SDS011;57587;55.688;37.600;2022-10-16T07:19:08;9.20;;;6.25;;
70199;SDS011;57587;55.688;37.600;2022-10-16T07:21:35;12.48;;;6.13;;
70199;SDS011;57587;55.688;37.600;2022-10-16T07:24:03;11.65;;;6.72;;
70199;SDS011;57587;55.688;37.600;2022-10-16T07:26:33;14.15;;;6.43;;
70199;SDS011;57587;55.688;37.600;2022-10-16T07:29:01;13.30;;;6.40;;
70199;SDS011;57587;55.688;37.600;2022-10-16T07:31:30;15.93;;;6.70;;
70199;SDS011;57587;55.688;37.600;2022-10-16T07:33:58;15.98;;;6.13;;
70199;SDS011;57587;55.688;37.600;2022-10-16T07:36:26;13.15;;;6.40;;
70199;SDS011;57587;55.688;37.600;2022-10-16T07:38:53;14.23;;;6.57;;
70199;SDS011;57587;55.688;37.600;2022-10-16T07:41:25;13.40;;;6.50;;
70199;SDS011;57587;55.688;37.600;2022-10-16T07:43:53;13.45;;;6.25;;
70199;SDS011;57587;55.688;37.600;2022-10-16T07:46:21;10.20;;;5.82;;
70199;SDS011;57587;55.688;37.600;2022-10-16T07:48:49;9.75;;;5.97;;
70199;SDS011;57587;55.688;37.600;2022-10-16T07:51:17;11.15;;;6.13;;
70199;SDS011;57587;55.688;37.600;2022-10-16T07:53:47;12.23;;;7.17;;
70199;SDS011;57587;55.688;37.600;2022-10-16T07:56:15;8.43;;;5.47;;
70199;SDS011;57587;55.688;37.600;2022-10-16T07:58:43;11.75;;;6.47;;
70199;SDS011;57587;55.688;37.600;2022-10-16T08:01:14;11.85;;;6.00;;
70199;SDS011;57587;55.688;37.600;2022-10-16T08:03:43;12.93;;;6.30;;
70199;SDS011;57587;55.688;37.600;2022-10-16T08:06:12;10.03;;;5.97;;
70199;SDS011;57587;55.688;37.600;2022-10-16T08:08:39;11.00;;;5.90;;
70199;SDS011;57587;55.688;37.600;2022-10-16T08:11:06;15.75;;;6.32;;
70199;SDS011;57587;55.688;37.600;2022-10-16T08:13:34;13.73;;;6.15;;
70199;SDS011;57587;55.688;37.600;2022-10-16T08:16:02;12.27;;;6.53;;
70199;SDS011;57587;55.688;37.600;2022-10-16T08:18:35;12.40;;;5.73;;
70199;SDS011;57587;55.688;37.600;2022-10-16T08:21:03;10.85;;;6.13;;
70199;SDS011;57587;55.688;37.600;2022-10-16T08:23:31;12.23;;;5.75;;
70199;SDS011;57587;55.688;37.600;2022-10-16T08:26:03;8.07;;;5.35;;
70199;SDS011;57587;55.688;37.600;2022-10-16T08:28:32;12.18;;;5.72;;
70199;SDS011;57587;55.688;37.600;2022-10-16T08:31:09;9.17;;;5.43;;
70199;SDS011;57587;55.688;37.600;2022-10-16T08:33:36;12.60;;;5.82;;
70199;SDS011;57587;55.688;37.600;2022-10-16T08:36:05;9.88;;;5.82;;
70199;SDS011;57587;55.688;37.600;2022-10-16T08:38:33;10.68;;;5.50;;
70199;SDS011;57587;55.688;37.600;2022-10-16T08:41:48;12.25;;;5.72;;
70199;SDS011;57587;55.688;37.600;2022-10-16T08:52:19;14.20;;;6.30;;
70199;SDS011;57587;55.688;37.600;2022-10-16T08:54:49;10.80;;;5.65;;
70199;SDS011;57587;55.688;37.600;2022-10-16T08:57:21;16.30;;;6.00;;
70199;SDS011;57587;55.688;37.600;2022-10-16T08:59:53;9.63;;;5.13;;
70199;SDS011;57587;55.688;37.600;2022-10-16T09:02:35;12.00;;;5.20;;
70199;SDS011;57587;55.688;37.600;2022-10-16T09:08:03;10.15;;;5.10;;
70199;SDS011;57587;55.688;37.600;2022-10-16T09:10:59;11.30;;;5.27;;
70199;SDS011;57587;55.688;37.600;2022-10-16T09:13:52;9.50;;;5.53;;
70199;SDS011;57587;55.688;37.600;2022-10-16T09:16:45;8.68;;;4.90;;
70199;SDS011;57587;55.688;37.600;2022-10-16T09:19:25;9.68;;;5.00;;
70199;SDS011;57587;55.688;37.600;2022-10-16T09:22:04;12.20;;;5.00;;
70199;SDS011;57587;55.688;37.600;2022-10-16T09:24:40;11.50;;;5.23;;
70199;SDS011;57587;55.688;37.600;2022-10-16T09:27:11;11.73;;;5.18;;
70199;SDS011;57587;55.688;37.600;2022-10-16T09:29:40;12.65;;;5.50;;
70199;SDS011;57587;55.688;37.600;2022-10-16T09:32:10;10.60;;;5.50;;
70199;SDS011;57587;55.688;37.600;2022-10-16T09:34:42;23.10;;;5.00;;
70199;SDS011;57587;55.688;37.600;2022-10-16T09:37:13;8.73;;;4.67;;
70199;SDS011;57587;55.688;37.600;2022-10-16T09:39:52;9.20;;;5.03;;
70199;SDS011;57587;55.688;37.600;2022-10-16T09:42:22;9.10;;;5.10;;
70199;SDS011;57587;55.688;37.600;2022-10-16T09:44:57;7.55;;;4.93;;
70199;SDS011;57587;55.688;37.600;2022-10-16T09:47:25;6.85;;;4.38;;
70199;SDS011;57587;55.688;37.600;2022-10-16T09:49:56;10.77;;;4.37;;
70199;SDS011;57587;55.688;37.600;2022-10-16T09:52:26;9.52;;;4.03;;
70199;SDS011;57587;55.688;37.600;2022-10-16T09:54:54;12.23;;;4.75;;
70199;SDS011;57587;55.688;37.600;2022-10-16T09:57:25;9.40;;;4.30;;
70199;SDS011;57587;55.688;37.600;2022-10-16T09:59:54;11.30;;;4.47;;
70199;SDS011;57587;55.688;37.600;2022-10-16T10:02:43;6.90;;;3.93;;
70199;SDS011;57587;55.688;37.600;2022-10-16T10:05:47;6.30;;;4.38;;
70199;SDS011;57587;55.688;37.600;2022-10-16T10:08:05;10.77;;;4.72;;
70199;SDS011;57587;55.688;37.600;2022-10-16T10:10:37;8.13;;;4.63;;
70199;SDS011;57587;55.688;37.600;2022-10-16T10:13:21;7.97;;;4.95;;
70199;SDS011;57587;55.688;37.600;2022-10-16T10:15:51;6.50;;;4.70;;
70199;SDS011;57587;55.688;37.600;2022-10-16T10:18:19;7.07;;;4.40;;
70199;SDS011;57587;55.688;37.600;2022-10-16T10:20:57;7.78;;;4.63;;
70199;SDS011;57587;55.688;37.600;2022-10-16T10:23:26;7.22;;;4.15;;
70199;SDS011;57587;55.688;37.600;2022-10-16T10:36:39;8.77;;;3.58;;
70199;SDS011;57587;55.688;37.600;2022-10-16T10:39:13;9.25;;;4.05;;
70199;SDS011;57587;55.688;37.600;2022-10-16T10:46:56;9.75;;;3.47;;
70199;SDS011;57587;55.688;37.600;2022-10-16T10:49:35;7.85;;;3.70;;
70199;SDS011;57587;55.688;37.600;2022-10-16T10:52:42;6.32;;;3.72;;
70199;SDS011;57587;55.688;37.600;2022-10-16T11:01:16;6.90;;;3.30;;
70199;SDS011;57587;55.688;37.600;2022-10-16T11:04:07;6.50;;;3.30;;
70199;SDS011;57587;55.688;37.600;2022-10-16T11:07:16;8.13;;;3.60;;
70199;SDS011;57587;55.688;37.600;2022-10-16T11:09:47;6.43;;;3.47;;
70199;SDS011;57587;55.688;37.600;2022-10-16T11:12:30;8.32;;;3.38;;
70199;SDS011;57587;55.688;37.600;2022-10-16T11:17:52;7.85;;;3.90;;
70199;SDS011;57587;55.688;37.600;2022-10-16T11:20:28;9.85;;;3.95;;
70199;SDS011;57587;55.688;37.600;2022-10-16T11:23:00;7.17;;;3.80;;
70199;SDS011;57587;55.688;37.600;2022-10-16T11:25:38;7.25;;;3.40;;
70199;SDS011;57587;55.688;37.600;2022-10-16T11:28:08;10.65;;;3.80;;
70199;SDS011;57587;55.688;37.600;2022-10-16T11:36:02;6.03;;;3.57;;
70199;SDS011;57587;55.688;37.600;2022-10-16T11:38:58;9.20;;;4.97;;
70199;SDS011;57587;55.688;37.600;2022-10-16T11:56:50;6.45;;;3.63;;
70199;SDS011;57587;55.688;37.600;2022-10-16T11:59:23;9.73;;;3.70;;
70199;SDS011;57587;55.688;37.600;2022-10-16T12:04:25;8.17;;;3.57;;
70199;SDS011;57587;55.688;37.600;2022-10-16T12:07:07;7.43;;;3.65;;
70199;SDS011;57587;55.688;37.600;2022-10-16T12:09:39;10.38;;;4.00;;
70199;SDS011;57587;55.688;37.600;2022-10-16T12:12:23;12.50;;;4.38;;
70199;SDS011;57587;55.688;37.600;2022-10-16T12:18:25;8.30;;;3.77;;
70199;SDS011;57587;55.688;37.600;2022-10-16T12:20:59;7.38;;;3.60;;
70199;SDS011;57587;55.688;37.600;2022-10-16T12:23:38;9.75;;;3.60;;
70199;SDS011;57587;55.688;37.600;2022-10-16T12:26:23;8.60;;;3.80;;
70199;SDS011;57587;55.688;37.600;2022-10-16T12:32:18;8.77;;;2.87;;
70199;SDS011;57587;55.688;37.600;2022-10-16T12:35:43;6.72;;;3.25;;
70199;SDS011;57587;55.688;37.600;2022-10-16T12:38:21;7.13;;;3.88;;
70199;SDS011;57587;55.688;37.600;2022-10-16T12:41:33;6.95;;;3.10;;
70199;SDS011;57587;55.688;37.600;2022-10-16T12:44:20;9.30;;;4.22;;
70199;SDS011;57587;55.688;37.600;2022-10-16T12:46:58;9.00;;;3.67;;
70199;SDS011;57587;55.688;37.600;2022-10-16T12:49:30;6.93;;;3.65;;
70199;SDS011;57587;55.688;37.600;2022-10-16T12:52:04;10.70;;;3.70;;
70199;SDS011;57587;55.688;37.600;2022-10-16T12:54:36;14.45;;;4.40;;
70199;SDS011;57587;55.688;37.600;2022-10-16T13:10:36;7.07;;;4.03;;
70199;SDS011;57587;55.688;37.600;2022-10-16T13:24:48;7.75;;;3.97;;
70199;SDS011;57587;55.688;37.600;2022-10-16T13:30:22;11.70;;;3.65;;
70199;SDS011;57587;55.688;37.600;2022-10-16T13:33:01;12.07;;;3.85;;
70199;SDS011;57587;55.688;37.600;2022-10-16T13:35:46;7.20;;;3.60;;
70199;SDS011;57587;55.688;37.600;2022-10-16T13:38:26;8.57;;;3.50;;
70199;SDS011;57587;55.688;37.600;2022-10-16T13:41:00;5.97;;;3.13;;
70199;SDS011;57587;55.688;37.600;2022-10-16T13:43:33;8.40;;;3.97;;
70199;SDS011;57587;55.688;37.600;2022-10-16T13:46:05;9.75;;;4.25;;
70199;SDS011;57587;55.688;37.600;2022-10-16T13:48:43;6.13;;;3.63;;
70199;SDS011;57587;55.688;37.600;2022-10-16T13:51:13;7.75;;;4.18;;
70199;SDS011;57587;55.688;37.600;2022-10-16T13:53:45;7.33;;;3.43;;
70199;SDS011;57587;55.688;37.600;2022-10-16T13:56:16;6.40;;;3.40;;
70199;SDS011;57587;55.688;37.600;2022-10-16T13:58:45;8.82;;;4.18;;
70199;SDS011;57587;55.688;37.600;2022-10-16T14:01:18;8.65;;;4.25;;
70199;SDS011;57587;55.688;37.600;2022-10-16T14:04:00;10.75;;;4.07;;
70199;SDS011;57587;55.688;37.600;2022-10-16T14:53:51;8.02;;;4.00;;
70199;SDS011;57587;55.688;37.600;2022-10-16T14:56:27;7.82;;;4.30;;
70199;SDS011;57587;55.688;37.600;2022-10-16T14:58:59;10.27;;;3.93;;
70199;SDS011;57587;55.688;37.600;2022-10-16T15:01:27;12.48;;;4.50;;
70199;SDS011;57587;55.688;37.600;2022-10-16T15:03:54;7.90;;;4.30;;
70199;SDS011;57587;55.688;37.600;2022-10-16T15:06:21;11.32;;;4.38;;
70199;SDS011;57587;55.688;37.600;2022-10-16T15:08:52;10.52;;;4.50;;
70199;SDS011;57587;55.688;37.600;2022-10-16T15:11:19;8.83;;;4.70;;
70199;SDS011;57587;55.688;37.600;2022-10-16T15:13:46;12.40;;;4.40;;
70199;SDS011;57587;55.688;37.600;2022-10-16T15:16:15;7.57;;;4.07;;
70199;SDS011;57587;55.688;37.600;2022-10-16T15:18:43;11.05;;;4.47;;
70199;SDS011;57587;55.688;37.600;2022-10-16T15:21:24;10.75;;;4.35;;
70199;SDS011;57587;55.688;37.600;2022-10-16T15:23:55;7.80;;;4.33;;
70199;SDS011;57587;55.688;37.600;2022-10-16T15:26:24;12.65;;;5.45;;
70199;SDS011;57587;55.688;37.600;2022-10-16T15:28:53;9.65;;;4.57;;
70199;SDS011;57587;55.688;37.600;2022-10-16T15:31:20;8.10;;;4.30;;
70199;SDS011;57587;55.688;37.600;2022-10-16T15:33:52;9.52;;;4.82;;
70199;SDS011;57587;55.688;37.600;2022-10-16T15:36:29;10.67;;;5.13;;
70199;SDS011;57587;55.688;37.600;2022-10-16T15:39:03;7.68;;;4.40;;
70199;SDS011;57587;55.688;37.600;2022-10-16T15:41:32;9.05;;;4.95;;
70199;SDS011;57587;55.688;37.600;2022-10-16T15:44:04;8.60;;;4.82;;
70199;SDS011;57587;55.688;37.600;2022-10-16T15:46:31;12.02;;;4.18;;
70199;SDS011;57587;55.688;37.600;2022-10-16T15:49:00;11.10;;;4.40;;
70199;SDS011;57587;55.688;37.600;2022-10-16T15:51:40;8.25;;;4.28;;
70199;SDS011;57587;55.688;37.600;2022-10-16T15:54:12;9.18;;;4.57;;
70199;SDS011;57587;55.688;37.600;2022-10-16T15:56:39;10.07;;;4.30;;
70199;SDS011;57587;55.688;37.600;2022-10-16T15:59:06;9.93;;;4.65;;
70199;SDS011;57587;55.688;37.600;2022-10-16T16:01:34;9.60;;;4.57;;
70199;SDS011;57587;55.688;37.600;2022-10-16T16:04:02;10.25;;;4.28;;
70199;SDS011;57587;55.688;37.600;2022-10-16T16:06:43;13.48;;;4.80;;
70199;SDS011;57587;55.688;37.600;2022-10-16T16:09:13;11.05;;;4.20;;
70199;SDS011;57587;55.688;37.600;2022-10-16T16:11:45;8.73;;;4.32;;
70199;SDS011;57587;55.688;37.600;2022-10-16T16:14:13;14.33;;;4.73;;
70199;SDS011;57587;55.688;37.600;2022-10-16T16:16:41;10.05;;;5.32;;
70199;SDS011;57587;55.688;37.600;2022-10-16T16:19:11;11.23;;;5.43;;
70199;SDS011;57587;55.688;37.600;2022-10-16T16:21:48;9.85;;;4.85;;
70199;SDS011;57587;55.688;37.600;2022-10-16T16:24:15;9.55;;;5.40;;
70199;SDS011;57587;55.688;37.600;2022-10-16T16:26:43;11.70;;;5.27;;
70199;SDS011;57587;55.688;37.600;2022-10-16T16:29:11;15.43;;;5.03;;
70199;SDS011;57587;55.688;37.600;2022-10-16T16:31:51;10.00;;;4.65;;
70199;SDS011;57587;55.688;37.600;2022-10-16T16:34:28;9.55;;;4.50;;
70199;SDS011;57587;55.688;37.600;2022-10-16T16:36:56;8.38;;;4.75;;
70199;SDS011;57587;55.688;37.600;2022-10-16T16:39:24;10.40;;;4.90;;
70199;SDS011;57587;55.688;37.600;2022-10-16T16:41:51;10.05;;;5.30;;
70199;SDS011;57587;55.688;37.600;2022-10-16T16:44:19;11.23;;;4.93;;
70199;SDS011;57587;55.688;37.600;2022-10-16T16:46:55;9.52;;;4.22;;
70199;SDS011;57587;55.688;37.600;2022-10-16T16:49:22;10.13;;;5.07;;
70199;SDS011;57587;55.688;37.600;2022-10-16T16:51:49;10.87;;;5.20;;
70199;SDS011;57587;55.688;37.600;2022-10-16T16:57:11;10.30;;;4.95;;
70199;SDS011;57587;55.688;37.600;2022-10-16T16:59:38;7.15;;;4.35;;
70199;SDS011;57587;55.688;37.600;2022-10-16T17:02:05;8.90;;;4.72;;
70199;SDS011;57587;55.688;37.600;2022-10-16T17:04:33;7.93;;;4.70;;
70199;SDS011;57587;55.688;37.600;2022-10-16T17:07:00;7.85;;;4.68;;
70199;SDS011;57587;55.688;37.600;2022-10-16T17:09:27;8.00;;;4.68;;
70199;SDS011;57587;55.688;37.600;2022-10-16T17:11:54;11.48;;;5.00;;
70199;SDS011;57587;55.688;37.600;2022-10-16T17:14:21;10.52;;;4.45;;
70199;SDS011;57587;55.688;37.600;2022-10-16T17:16:48;10.87;;;4.27;;
70199;SDS011;57587;55.688;37.600;2022-10-16T17:19:16;9.32;;;4.35;;
70199;SDS011;57587;55.688;37.600;2022-10-16T17:21:49;9.45;;;4.10;;
70199;SDS011;57587;55.688;37.600;2022-10-16T17:24:17;9.50;;;4.40;;
70199;SDS011;57587;55.688;37.600;2022-10-16T17:26:45;7.10;;;4.28;;